Payne City, Georgia
Current Conditions -  °F | °C
As of 10:53 AM on Saturday 20 Dec 2014 (Local Time) from KMCN Reporting Station
Haze Haze  
Wind Chill: 49°   Ceiling: 2200
Heat Index: 49°   Visibility: 2.5mi
Dew Point: 49°   Wind: 0mph
Humidity: 100%   Direction: NA
Pressure: 30.22"   Gusts: NA
Location:  32.85°N, 83.675°W
Report Text: KMCN 201553Z 00000KT 2 1/2SM BR FEW008 BKN022 OVC033 09/09 A3022 RMK AO2 RAE11 SLP232 P0001 T00940094
Loading
Personal Weather Stations






























Interactive Weather Map New forecast layout! Learn more

10-Day Weather Forecast

Advertisements
Track Severe Weather on mobile